Altamonte Springs, FL

6:45 AM EDT on October 24, 2014 (GMT -0400)
Maitland Tire Co. | Change Station
CLOSE
Current Station
Personal Weather Station
Location: Maitland, FL
Elevation: 79 ft
Nearby Weather Stations

Elev 79 ft 28.63 °N, 81.36 °W | Updated 2 seconds ago

Partly Cloudy
Partly Cloudy
61.2 °F
Feels Like 61.2 °F
N
3.8
Wind Variable Wind from North
Gusts 4.5 mph

Today
High -- | Low -- °F
--% Chance of Precip.
Yesterday
High -- | Low -- °F
Precip. -- in
7:32 AM 6:46 PM
New Moon, 0% visible
Pressure 29.98 in
Visibility 10.0 miles
Clouds Clear
Dew Point 56 °F
Humidity 83%
Rainfall 0.00 in
Snow Depth Not available.
UV 0 out of 12
Pollen 6.10 out of 12
Air Quality Not available.
Flu Activity Local Activity
METAR KORL 240953Z 36005KT 10SM CLR 18/13 A2996 RMK AO2 SLP150 T01780133

More Conditions Fewer Conditions

Pressure 29.98 in
Visibility 10.0 miles
Clouds Clear
Dew Point 56 °F
Humidity 83%
Rainfall 0.00 in
Snow Depth Not available.
UV 0 out of 12
Pollen 6.10 out of 12
Air Quality Not available.
Flu Activity Local Activity
METAR KORL 240953Z 36005KT 10SM CLR 18/13 A2996 RMK AO2 SLP150 T01780133

More Conditions Fewer Conditions

10-Day Weather Forecast

Almanac

Astronomy

Oct. 24, 2014 Rise Set
Actual Time 7:32 AM EDT 6:46 PM EDT
Civil Twilight 7:07 AM EDT 7:10 PM EDT
Nautical Twilight 6:40 AM EDT 7:38 PM EDT
Astronomical Twilight 6:12 AM EDT 8:06 PM EDT
Moon 8:07 AM EDT 7:29 PM EDT
Length of Visible Light 12h 02m
Length of Day
11h 14m
Tomorrow will be 1m 35s shorter.
New Moon, 0% of the Moon is Illuminated
Today
New Moon
Oct 30
First Quarter
Nov 6
Full
Nov 14
Last Quarter
Nov 22
New

Today's Extremes

State Highs State Lows

Community

WunderPhotos

Upload Photos

1,764,516 photos uploaded!

WunderBlogs® & News

Nearby

Snow Depth

Station Depth Elevation
No new snow has been reported.

Earthquake Activity

City Distance Mag. Time & Date
No recent earthquake activity has been reported nearby.
Minimum magnitude displayed is 2.5.

Coastal Water Temperatures

Place Temperature
No Stations Reporting

Nearby Weather Stations